• Join FlightAware (Why Join?)
  • Login
  • US Flag GB Flag 
11:32 EDT


 

Airport Tracker/Info


-or-


 

Live Flight TrackerFlight Track Log ✈ ACA7033 ✈ 20-Dec-2013 ✈ KRDU - KTPA

Flight Track Log - Related Links

Times and Time Zones

All times are in EST time to prevent confusion due to time zone crossing. See the ACA7033 flight status page for this flight to view local times or setup timezone preferences in your user account.

Time Position Orientation Groundspeed Altitude Reporting Facility
EST Latitude Longitude Course Direction KTS MPH feet Rate Location/Type
22:48 35.8561 -78.8108 195° South 157 181 1,300  Level Washington Center
22:48 35.8225 -78.8222 195° South 178 205 3,300 2,760 Climbing Washington Center
22:49 35.7542 -78.8042 168° South 265 305 6,400 2,880 Climbing Washington Center
22:50 35.7108 -78.7869 162° South 275 316 8,600 2,820 Climbing Washington Center
22:51 35.6322 -78.7558 162° South 286 329 11,500 3,180 Climbing Washington Center
22:52 35.5333 -78.7136 161° South 325 374 15,000 3,060 Climbing Washington Center
22:53 35.4458 -78.7000 173° South 349 402 17,700 2,700 Climbing Washington Center
22:54 35.3358 -78.6856 174° South 359 413 20,400 2,400 Climbing Washington Center
22:55 35.2297 -78.6689 173° South 372 428 22,600 2,160 Climbing Washington Center
22:56 35.1239 -78.6519 173° South 385 443 24,800 2,280 Climbing Washington Center
22:57 35.0133 -78.6503 179° South 391 450 27,200 2,040 Climbing Washington Center
22:58 34.9103 -78.6769 192° South 386 444 29,000 1,440 Climbing Washington Center
22:59 34.8150 -78.7314 205° Southwest 379 436 30,100 1,200 Climbing Washington Center
23:02 34.5764 -78.8958 210° Southwest 406 467 33,300 1,320 Climbing Jacksonville Center
23:03 34.4806 -78.9683 212° Southwest 411 473 34,800 1,440 Climbing Jacksonville Center
23:04 34.3844 -79.0356 210° Southwest 411 473 36,200 1,260 Climbing Jacksonville Center
23:05 34.3014 -79.1172 219° Southwest 405 466 37,400 900 Climbing Jacksonville Center
23:06 34.2161 -79.1961 217° Southwest 399 459 38,000 240 Climbing Jacksonville Center
23:07 34.1331 -79.2750 218° Southwest 394 453 37,900  Descending Jacksonville Center
23:08 34.0478 -79.3586 219° Southwest 394 453 38,000  Climbing Jacksonville Center
23:09 33.9581 -79.4400 217° Southwest 388 447 38,000  Level Jacksonville Center
23:10 33.8747 -79.5183 218° Southwest 381 438 38,000 -60 Level Jacksonville Center
23:11 33.7872 -79.5992 218° Southwest 386 444 37,900 -60 Descending Jacksonville Center
23:12 33.7017 -79.6822 219° Southwest 392 451 37,900  Level Jacksonville Center
23:13 33.6181 -79.7600 218° Southwest 392 451 37,900  Level Jacksonville Center
23:14 33.5367 -79.8403 219° Southwest 392 451 38,000  Climbing Jacksonville Center
23:15 33.4489 -79.9228 218° Southwest 392 451 37,900 -60 Descending Jacksonville Center
23:16 33.3650 -80.0003 218° Southwest 387 445 37,900  Level Jacksonville Center
23:17 33.2792 -80.0825 219° Southwest 392 451 38,000  Climbing Jacksonville Center
23:18 33.1911 -80.1622 217° Southwest 392 451 38,000  Level Jacksonville Center
23:19 33.1133 -80.2339 218° Southwest 405 466 38,000  Level Jacksonville Center
23:20 33.0253 -80.3133 217° Southwest 405 466 38,000  Level Jacksonville Center
23:21 32.9353 -80.3953 217° Southwest 405 466 38,000  Level Jacksonville Center
23:22 32.8492 -80.4742 218° Southwest 405 466 38,000 -60 Level Jacksonville Center
23:23 32.7628 -80.5531 218° Southwest 399 459 37,900 -60 Descending Jacksonville Center
23:24 32.6767 -80.6319 218° Southwest 399 459 37,900  Level Jacksonville Center
23:25 32.5903 -80.7131 218° Southwest 399 459 38,000  Climbing Jacksonville Center
23:26 32.5019 -80.7914 217° Southwest 399 459 38,000 -60 Level Jacksonville Center
23:27 32.4178 -80.8722 219° Southwest 399 459 37,900  Descending Jacksonville Center
23:28 32.3189 -80.9578 216° Southwest 405 466 38,000  Climbing Jacksonville Center
23:29 32.2344 -81.0333 217° Southwest 400 460 38,000  Level Jacksonville Center
23:30 32.1519 -81.1086 218° Southwest 406 467 38,000 -60 Level Jacksonville Center
23:31 32.0631 -81.1864 217° Southwest 406 467 37,900  Descending Jacksonville Center
23:32 31.9786 -81.2639 218° Southwest 406 467 38,000  Climbing Jacksonville Center
23:33 31.8794 -81.3464 215° Southwest 406 467 38,000  Level Jacksonville Center
23:34 31.7886 -81.4236 216° Southwest 405 466 38,000  Level Jacksonville Center
23:35 31.6997 -81.5081 219° Southwest 405 466 38,000 -240 Level Jacksonville Center
23:36 31.6128 -81.5875 218° Southwest 405 466 37,600 -900 Descending Jacksonville Center
23:37 31.5342 -81.6567 217° Southwest 400 460 36,200 -840 Descending Jacksonville Center
23:38 31.4472 -81.7333 217° Southwest 400 460 36,000 -120 Descending Jacksonville Center
23:39 31.3603 -81.8100 217° Southwest 394 453 36,000 -60 Level Jacksonville Center
23:40 31.2711 -81.8911 218° Southwest 400 460 35,900  Descending Jacksonville Center
23:41 31.1839 -81.9650 216° Southwest 400 460 36,000  Climbing Jacksonville Center
23:42 31.0989 -82.0433 218° Southwest 400 460 36,000 -60 Level Jacksonville Center
23:43 31.0136 -82.1194 217° Southwest 400 460 35,900 -60 Descending Jacksonville Center
23:44 30.8908 -82.1614 196° South 400 460 35,900  Level Jacksonville Center
23:45 30.7781 -82.1769 187° South 405 466 36,000  Climbing Jacksonville Center
23:46 30.6656 -82.1947 188° South 415 478 36,000 -60 Level Jacksonville Center
23:47 30.5508 -82.2147 189° South 415 478 35,900 -60 Descending Jacksonville Center
23:48 30.4381 -82.2275 186° South 415 478 35,900  Level Jacksonville Center
23:49 30.3253 -82.2428 187° South 410 472 35,900 -240 Level Jacksonville Center
23:50 30.2106 -82.2603 188° South 410 472 35,500 -960 Descending Jacksonville Center
23:51 30.0958 -82.2781 188° South 410 472 34,000 -1,500 Descending Jacksonville Center
23:52 29.9811 -82.3003 190° South 410 472 32,500 -1,500 Descending Jacksonville Center
23:53 29.8728 -82.3153 187° South 410 472 31,000 -1,500 Descending Jacksonville Center
23:54 29.7642 -82.3328 188° South 405 466 29,500 -1,500 Descending Jacksonville Center
23:55 29.6619 -82.3453 186° South 391 450 28,000 -840 Descending Jacksonville Center
23:56 29.5597 -82.3531 184° South 379 436 27,900 -660 Descending Jacksonville Center
23:57 29.4594 -82.3392 173° South 368 423 26,700 -1,560 Descending Jacksonville Center
23:58 29.3592 -82.3303 176° South 363 418 24,800 -1,920 Descending Jacksonville Center
23:59 29.2672 -82.3214 175° South 357 411 22,900 -1,920 Descending Jacksonville Center
00:00 29.1711 -82.3075 173° South 351 404 21,000 -1,860 Descending Jacksonville Center
00:01 29.0772 -82.2961 174° South 351 404 19,200 -1,800 Descending Jacksonville Center
00:02 28.9853 -82.2872 175° South 346 398 17,400 -1,740 Descending Jacksonville Center
00:03 28.8933 -82.2736 173° South 346 398 15,800 -1,620 Descending Jacksonville Center
00:04 28.7333 -82.2667 178° South 315 362 12,900 -1,560 Descending Tampa TRACON
00:05 28.6500 -82.2500 170° South 305 351 11,500 -1,080 Descending Tampa TRACON
00:06 28.5833 -82.2500 180° South 298 343 11,000 -900 Descending Tampa TRACON
00:08 28.4667 -82.2500 180° South 287 330 9,500 -1,200 Descending Tampa TRACON
00:09 28.4000 -82.2500 180° South 276 318 8,300 -1,500 Descending Tampa TRACON
00:09 28.3333 -82.2667 192° South 273 314 7,000 -720 Descending Tampa TRACON
00:10 28.3000 -82.3500 246° West 283 326 7,000  Level Tampa TRACON
00:11 28.2833 -82.4167 254° West 282 325 7,000 -960 Level Tampa TRACON
00:12 28.2500 -82.5000 246° West 266 306 5,100 -1,860 Descending Tampa TRACON
00:13 28.1833 -82.5167 192° South 247 284 3,100 -1,260 Descending Tampa TRACON
00:14 28.1167 -82.5167 180° South 181 208 2,600 -720 Descending Tampa TRACON
00:16 28.0667 -82.5333 196° South 163 188 1,600 -840 Descending Tampa TRACON
00:16 28.0333 -82.5333 180° South 132 152 1,000 -660 Descending Tampa TRACON
00:17 28.0167 -82.5333 180° South 108 124 500 -600 Descending Tampa TRACON
00:19 27.9755 -82.5332 172° South  Level Estimated
00:26 27.9755 -82.5332 172° South  Level Estimated
00:27 27.9755 -82.5332 172° South  Level Estimated